Time;durP1;ratioP1;P1;durP2;ratioP2;P2;SDS_P1;SDS_P2;PMS_P1;PMS_P2;Temp;Humidity;BMP_temperature;BMP_pressure;BME280_temperature;BME280_humidity;BME280_pressure;Samples;Min_cycle;Max_cycle;Signal;HPM_P1;HPM_P2
2023/05/28 00:00:27;;;;;;;8.95;5.18;;;14.60;1.00;;;;;;7362215;19;20499;-69
2023/05/28 00:03:00;;;;;;;12.38;5.68;;;14.60;1.00;;;;;;7368178;19;20527;-69
2023/05/28 00:05:30;;;;;;;10.70;5.45;;;14.70;1.00;;;;;;7365406;19;20015;-69
2023/05/28 00:08:00;;;;;;;9.43;5.03;;;14.60;1.00;;;;;;7367122;19;20089;-70
2023/05/28 00:10:30;;;;;;;9.82;5.38;;;14.50;1.00;;;;;;7365779;19;20026;-69
2023/05/28 00:13:01;;;;;;;11.35;4.55;;;14.50;1.00;;;;;;7389755;19;20035;-70
2023/05/28 00:15:31;;;;;;;10.45;5.28;;;14.40;1.00;;;;;;7365739;19;20022;-69
2023/05/28 00:18:03;;;;;;;8.75;4.97;;;14.30;1.00;;;;;;7365673;19;20010;-69
2023/05/28 00:20:34;;;;;;;8.77;4.78;;;14.20;1.00;;;;;;7366192;19;20019;-69
2023/05/28 00:23:04;;;;;;;10.75;5.10;;;14.20;1.00;;;;;;7368214;19;20019;-69
2023/05/28 00:25:34;;;;;;;10.07;4.95;;;14.20;1.00;;;;;;7366530;19;20044;-70
2023/05/28 00:28:04;;;;;;;14.45;5.93;;;14.30;1.00;;;;;;7388944;19;20018;-69
2023/05/28 00:30:34;;;;;;;10.45;5.47;;;14.30;1.00;;;;;;7363532;19;20123;-68
2023/05/28 00:33:06;;;;;;;9.73;4.93;;;14.20;1.00;;;;;;7366609;19;20021;-67
2023/05/28 00:35:36;;;;;;;9.13;5.00;;;14.10;1.00;;;;;;7366155;19;20019;-67
2023/05/28 00:38:06;;;;;;;11.60;4.93;;;14.00;1.00;;;;;;7366008;19;20018;-68
2023/05/28 00:40:36;;;;;;;11.05;4.60;;;14.00;1.00;;;;;;7363642;19;20049;-68
2023/05/28 00:43:07;;;;;;;10.00;4.53;;;14.00;1.00;;;;;;7388357;19;20026;-68
2023/05/28 00:45:36;;;;;;;14.38;5.28;;;13.90;1.00;;;;;;7365596;19;20094;-69
2023/05/28 00:48:10;;;;;;;11.43;5.13;;;13.80;1.00;;;;;;7364476;19;20114;-68
2023/05/28 00:50:42;;;;;;;10.07;5.53;;;13.80;1.00;;;;;;7364725;19;20109;-68
2023/05/28 00:53:13;;;;;;;11.00;5.85;;;13.80;1.00;;;;;;7365937;19;20018;-68
2023/05/28 00:55:43;;;;;;;9.77;5.32;;;13.70;1.00;;;;;;7364320;19;20010;-68
2023/05/28 00:58:13;;;;;;;8.05;4.88;;;13.70;1.00;;;;;;7365185;19;20018;-68
2023/05/28 01:00:43;;;;;;;10.40;5.63;;;13.70;1.00;;;;;;7385579;19;20018;-68
2023/05/28 01:03:16;;;;;;;12.88;5.53;;;13.60;1.00;;;;;;7366408;19;20011;-68
2023/05/28 01:05:47;;;;;;;11.05;5.72;;;13.50;1.00;;;;;;7364752;19;20031;-68
2023/05/28 01:08:17;;;;;;;9.80;5.32;;;13.50;1.00;;;;;;7364736;19;20021;-68
2023/05/28 01:10:48;;;;;;;12.02;6.18;;;13.40;1.00;;;;;;7364219;19;20499;-69
2023/05/28 01:13:18;;;;;;;10.88;6.45;;;13.40;1.00;;;;;;7364587;19;20042;-69
2023/05/28 01:15:48;;;;;;;11.50;5.60;;;13.40;1.00;;;;;;7387631;19;20014;-69
2023/05/28 01:18:21;;;;;;;11.00;5.70;;;13.40;1.00;;;;;;7364074;19;20101;-69
2023/05/28 01:20:51;;;;;;;13.82;6.25;;;13.20;1.00;;;;;;7364347;19;20021;-69
2023/05/28 01:23:23;;;;;;;11.80;5.97;;;13.30;1.00;;;;;;7366036;19;20071;-68
2023/05/28 01:25:56;;;;;;;9.35;5.35;;;13.30;1.00;;;;;;7366259;19;20014;-68
2023/05/28 01:28:26;;;;;;;13.43;6.18;;;13.30;1.00;;;;;;7363671;19;20040;-68
2023/05/28 01:30:56;;;;;;;11.82;5.60;;;13.20;1.00;;;;;;7383625;19;20389;-68
2023/05/28 01:33:27;;;;;;;8.43;5.40;;;13.10;1.00;;;;;;7364213;19;20030;-68
2023/05/28 01:36:00;;;;;;;12.02;5.53;;;13.10;1.00;;;;;;7365114;19;20537;-67
2023/05/28 01:38:30;;;;;;;7.28;5.10;;;13.10;1.00;;;;;;7362910;19;20018;-68
2023/05/28 01:41:04;;;;;;;9.38;5.32;;;13.10;1.00;;;;;;7364118;19;20479;-68
2023/05/28 01:43:34;;;;;;;12.32;5.63;;;13.00;1.00;;;;;;7363439;19;20033;-68
2023/05/28 01:46:05;;;;;;;9.75;5.00;;;13.00;1.00;;;;;;7384593;19;20026;-68
2023/05/28 01:48:36;;;;;;;10.73;5.43;;;12.90;1.00;;;;;;7360180;19;20021;-68
2023/05/28 01:51:07;;;;;;;13.35;5.40;;;12.90;1.00;;;;;;7363103;19;20023;-69
2023/05/28 01:53:37;;;;;;;11.40;5.07;;;12.80;1.00;;;;;;7362961;19;20488;-68
2023/05/28 01:56:10;;;;;;;12.82;5.65;;;12.80;1.00;;;;;;7363116;19;20366;-68
2023/05/28 01:58:40;;;;;;;11.32;5.82;;;12.80;1.00;;;;;;7363077;19;20020;-69
2023/05/28 02:01:17;;;;;;;11.23;5.43;;;12.80;1.00;;;;;;7380780;19;20014;-70
2023/05/28 02:03:47;;;;;;;15.65;5.93;;;12.80;1.00;;;;;;7384235;19;20014;-70
2023/05/28 02:06:17;;;;;;;10.70;5.32;;;12.70;1.00;;;;;;7362818;19;20537;-69
2023/05/28 02:08:47;;;;;;;12.10;6.55;;;12.80;1.00;;;;;;7361492;19;20018;-69
2023/05/28 02:11:19;;;;;;;12.40;6.35;;;12.70;1.00;;;;;;7361348;19;20014;-69
2023/05/28 02:13:49;;;;;;;11.25;6.97;;;12.70;1.00;;;;;;7362038;19;20132;-69
2023/05/28 02:16:20;;;;;;;12.60;5.30;;;12.60;1.00;;;;;;7362810;19;20050;-69
2023/05/28 02:18:54;;;;;;;16.48;5.78;;;12.60;1.00;;;;;;7364506;19;20023;-69
2023/05/28 02:21:24;;;;;;;11.18;5.47;;;12.50;1.00;;;;;;7354934;19;20616;-69
2023/05/28 02:23:55;;;;;;;12.60;6.03;;;12.40;1.00;;;;;;7357221;19;20075;-69
2023/05/28 02:26:27;;;;;;;11.38;5.95;;;12.30;1.00;;;;;;7363188;19;20537;-69
2023/05/28 02:28:57;;;;;;;13.18;6.28;;;12.40;1.00;;;;;;7360776;19;20018;-69
2023/05/28 02:31:27;;;;;;;11.32;6.30;;;12.30;1.00;;;;;;7361694;19;20928;-69
2023/05/28 02:33:58;;;;;;;12.70;6.72;;;12.30;1.00;;;;;;7383293;19;20014;-69
2023/05/28 02:36:29;;;;;;;14.10;6.53;;;12.40;1.00;;;;;;7362964;19;20088;-69
2023/05/28 02:38:59;;;;;;;11.32;6.43;;;12.30;1.00;;;;;;7362400;19;20033;-69
2023/05/28 02:41:32;;;;;;;11.85;5.70;;;12.20;1.00;;;;;;7360631;19;20038;-69
2023/05/28 02:44:02;;;;;;;11.45;6.18;;;12.20;1.00;;;;;;7361323;19;20029;-69
2023/05/28 02:46:32;;;;;;;13.05;6.28;;;12.20;1.00;;;;;;7363060;19;20469;-69
2023/05/28 02:49:02;;;;;;;17.60;6.97;;;12.20;1.00;;;;;;7381108;19;20042;-69
2023/05/28 02:51:32;;;;;;;10.68;6.30;;;12.10;1.00;;;;;;7361185;19;20023;-69
2023/05/28 02:54:02;;;;;;;14.45;6.80;;;12.00;1.00;;;;;;7362077;19;20015;-69
2023/05/28 02:56:34;;;;;;;11.07;6.45;;;12.00;1.00;;;;;;7362240;19;20110;-69
2023/05/28 02:59:04;;;;;;;11.77;6.25;;;11.90;1.00;;;;;;7362370;19;20078;-69
2023/05/28 03:01:35;;;;;;;12.15;6.80;;;11.90;1.00;;;;;;7362146;19;20051;-69
2023/05/28 03:04:05;;;;;;;12.95;6.40;;;12.00;1.00;;;;;;7383938;19;20015;-69
2023/05/28 03:06:36;;;;;;;12.50;7.03;;;11.90;1.00;;;;;;7362518;19;20478;-69
2023/05/28 03:09:06;;;;;;;15.18;7.55;;;11.90;1.00;;;;;;7360902;19;20502;-69
2023/05/28 03:11:38;;;;;;;17.17;6.72;;;11.90;1.00;;;;;;7361455;19;20478;-69
2023/05/28 03:14:08;;;;;;;13.88;7.55;;;11.80;1.00;;;;;;7361113;19;20018;-69
2023/05/28 03:16:38;;;;;;;14.32;7.10;;;11.80;1.00;;;;;;7362154;19;20014;-69
2023/05/28 03:19:09;;;;;;;11.57;6.80;;;11.90;1.00;;;;;;7382159;19;20023;-69
2023/05/28 03:21:40;;;;;;;12.52;6.78;;;11.90;1.00;;;;;;7360429;19;20435;-69
2023/05/28 03:24:10;;;;;;;14.25;6.68;;;11.90;1.00;;;;;;7362059;19;20039;-67
2023/05/28 03:26:42;;;;;;;12.88;6.10;;;11.90;1.00;;;;;;7361798;19;20014;-68
2023/05/28 03:29:15;;;;;;;12.18;6.05;;;12.00;1.00;;;;;;7359697;19;20062;-67
2023/05/28 03:31:47;;;;;;;13.43;5.90;;;12.10;1.00;;;;;;7359672;19;20010;-68
2023/05/28 03:34:17;;;;;;;11.75;6.28;;;12.10;1.00;;;;;;7360080;19;20022;-69
2023/05/28 03:36:47;;;;;;;12.50;6.28;;;12.00;1.00;;;;;;7389328;19;20053;-69
2023/05/28 03:39:18;;;;;;;14.55;5.75;;;12.00;1.00;;;;;;7366958;19;20085;-69
2023/05/28 03:41:51;;;;;;;11.48;5.97;;;12.00;1.00;;;;;;7367382;19;20015;-68
2023/05/28 03:44:21;;;;;;;16.10;6.88;;;12.10;1.00;;;;;;7367315;19;20014;-67
2023/05/28 03:46:51;;;;;;;12.68;5.68;;;12.10;1.00;;;;;;7368151;19;20028;-67
2023/05/28 03:49:21;;;;;;;9.93;6.05;;;12.40;1.00;;;;;;7365665;19;20030;-68
2023/05/28 03:51:51;;;;;;;13.57;5.78;;;12.90;1.00;;;;;;7389270;19;20489;-67
2023/05/28 03:54:21;;;;;;;10.90;5.72;;;13.20;1.00;;;;;;7366893;19;20022;-68
2023/05/28 03:56:53;;;;;;;15.95;6.53;;;13.50;1.00;;;;;;7366790;19;20024;-68
2023/05/28 03:59:23;;;;;;;9.98;5.28;;;13.40;1.00;;;;;;7366968;19;20723;-67
2023/05/28 04:01:53;;;;;;;13.40;5.90;;;13.40;1.00;;;;;;7367474;19;20607;-68
2023/05/28 04:04:23;;;;;;;11.32;5.20;;;14.00;1.00;;;;;;7366452;19;20019;-67
2023/05/28 04:06:54;;;;;;;10.40;5.30;;;14.10;1.00;;;;;;7389655;19;20022;-68
2023/05/28 04:09:24;;;;;;;9.98;5.55;;;14.60;1.00;;;;;;7363335;19;20626;-69
2023/05/28 04:11:58;;;;;;;9.70;5.63;;;15.20;1.00;;;;;;7367389;19;20010;-67
2023/05/28 04:14:27;;;;;;;9.83;5.20;;;15.60;1.00;;;;;;7366951;19;20486;-67
2023/05/28 04:16:57;;;;;;;10.75;5.50;;;15.80;1.00;;;;;;7367992;19;20474;-68
2023/05/28 04:19:27;;;;;;;11.10;5.13;;;15.60;1.00;;;;;;7367126;19;20026;-67
2023/05/28 04:21:57;;;;;;;14.90;5.65;;;16.10;1.00;;;;;;7388643;19;20023;-68
2023/05/28 04:24:27;;;;;;;11.57;5.20;;;16.60;1.00;;;;;;7366343;19;20020;-68
2023/05/28 04:27:00;;;;;;;9.60;5.10;;;17.00;1.00;;;;;;7368087;19;20329;-68
2023/05/28 04:29:32;;;;;;;14.73;5.88;;;16.80;1.00;;;;;;7365041;19;20633;-68
2023/05/28 04:32:03;;;;;;;10.43;5.72;;;16.70;1.00;;;;;;7366965;19;20018;-68
2023/05/28 04:34:33;;;;;;;10.35;5.13;;;17.30;1.00;;;;;;7363525;19;20515;-68
2023/05/28 04:37:04;;;;;;;12.00;5.68;;;17.20;1.00;;;;;;7389330;19;20026;-68
2023/05/28 04:39:35;;;;;;;9.88;5.80;;;17.30;1.00;;;;;;7364724;19;20029;-67
2023/05/28 04:42:09;;;;;;;12.82;5.85;;;17.40;1.00;;;;;;7366400;19;20078;-69
2023/05/28 04:44:40;;;;;;;11.40;5.30;;;17.40;1.00;;;;;;7364254;19;20018;-67
2023/05/28 04:47:11;;;;;;;10.35;4.65;;;18.70;1.00;;;;;;7363645;19;20046;-68
2023/05/28 04:49:41;;;;;;;8.13;4.72;;;18.90;1.00;;;;;;7365087;19;20018;-67
2023/05/28 04:52:11;;;;;;;9.32;4.30;;;19.00;1.00;;;;;;7380472;19;20101;-68
2023/05/28 04:54:41;;;;;;;9.82;4.25;;;18.30;1.00;;;;;;7386332;19;20019;-68
2023/05/28 04:57:15;;;;;;;8.52;4.38;;;18.70;1.00;;;;;;7364980;19;20029;-67
2023/05/28 04:59:46;;;;;;;7.60;4.20;;;18.60;1.00;;;;;;7363960;19;20072;-67
2023/05/28 05:02:18;;;;;;;9.30;4.25;;;18.90;1.00;;;;;;7366358;19;20115;-68
2023/05/28 05:04:48;;;;;;;10.85;4.25;;;19.20;1.00;;;;;;7365280;19;20016;-67
2023/05/28 05:07:20;;;;;;;11.73;4.57;;;20.20;1.00;;;;;;7365762;19;20022;-67
2023/05/28 05:09:50;;;;;;;7.50;4.25;;;19.70;1.00;;;;;;7384119;19;20022;-68
2023/05/28 05:12:23;;;;;;;10.05;5.25;;;20.10;1.00;;;;;;7365403;19;20118;-68
2023/05/28 05:14:52;;;;;;;9.43;4.60;;;20.10;1.00;;;;;;7365245;19;20036;-68
2023/05/28 05:17:22;;;;;;;9.38;4.75;;;20.00;1.00;;;;;;7364668;19;20014;-67
2023/05/28 05:19:52;;;;;;;12.68;5.13;;;20.30;1.00;;;;;;7364293;19;20014;-68
2023/05/28 05:22:22;;;;;;;8.93;4.78;;;20.30;1.00;;;;;;7364723;19;20081;-67
2023/05/28 05:24:52;;;;;;;6.53;4.22;;;20.00;1.00;;;;;;7386744;19;20018;-67
2023/05/28 05:27:25;;;;;;;10.77;5.30;;;20.30;1.00;;;;;;7334294;19;20089;-67
2023/05/28 05:29:55;;;;;;;8.95;5.03;;;20.10;1.00;;;;;;7362167;19;20014;-68
2023/05/28 05:32:25;;;;;;;9.40;5.38;;;19.90;1.00;;;;;;7365289;19;20014;-68
2023/05/28 05:34:55;;;;;;;9.57;5.25;;;19.90;1.00;;;;;;7363802;19;20045;-68
2023/05/28 05:37:25;;;;;;;8.55;4.88;;;20.50;1.00;;;;;;7364264;19;20059;-68
2023/05/28 05:39:55;;;;;;;9.20;5.05;;;20.30;1.00;;;;;;7383995;19;20025;-68
2023/05/28 05:42:27;;;;;;;10.93;5.00;;;20.20;1.00;;;;;;7364966;19;20042;-68
2023/05/28 05:44:57;;;;;;;11.43;5.30;;;20.10;1.00;;;;;;7362878;19;20025;-67
2023/05/28 05:47:27;;;;;;;9.15;4.95;;;20.30;1.00;;;;;;7363837;19;20636;-68
2023/05/28 05:49:57;;;;;;;14.18;5.65;;;20.00;1.00;;;;;;7363115;19;20021;-67
2023/05/28 05:52:27;;;;;;;11.70;5.13;;;19.60;1.00;;;;;;7364347;19;20052;-68
2023/05/28 05:54:57;;;;;;;7.38;4.85;;;19.70;1.00;;;;;;7385407;19;20078;-68
2023/05/28 05:57:32;;;;;;;10.63;4.82;;;19.40;1.00;;;;;;7362718;19;20093;-68
2023/05/28 06:00:02;;;;;;;;;;;19.20;1.00;;;;;;7362198;19;20017;-68
2023/05/28 06:02:32;;;;;;;9.32;5.13;;;18.50;1.00;;;;;;7364315;19;19921;-68
2023/05/28 06:05:02;;;;;;;11.32;5.10;;;19.10;1.00;;;;;;7363347;19;20019;-67
2023/05/28 06:07:40;;;;;;;8.70;5.05;;;19.60;1.00;;;;;;7363874;19;20018;-68
2023/05/28 06:10:10;;;;;;;9.73;4.80;;;19.40;1.00;;;;;;7384010;19;20507;-68
2023/05/28 06:12:43;;;;;;;8.43;4.55;;;18.70;1.00;;;;;;7363254;19;20111;-68
2023/05/28 06:15:13;;;;;;;8.40;4.35;;;18.10;1.00;;;;;;7363096;19;20014;-68
2023/05/28 06:17:43;;;;;;;17.90;4.75;;;18.50;1.00;;;;;;7363146;19;20531;-68
2023/05/28 06:20:14;;;;;;;10.90;4.63;;;18.60;1.00;;;;;;7362825;19;20126;-68
2023/05/28 06:22:45;;;;;;;7.60;4.20;;;18.80;1.00;;;;;;7363651;19;20010;-67
2023/05/28 06:25:16;;;;;;;10.52;4.75;;;18.70;1.00;;;;;;7384581;19;20542;-68
2023/05/28 06:27:49;;;;;;;11.00;4.30;;;18.90;1.00;;;;;;7363931;19;20391;-68
2023/05/28 06:30:19;;;;;;;10.55;4.43;;;19.40;1.00;;;;;;7360996;19;20182;-69
2023/05/28 06:32:49;;;;;;;8.77;4.47;;;19.10;1.00;;;;;;7363441;19;20478;-68
2023/05/28 06:35:21;;;;;;;6.63;4.18;;;19.20;1.00;;;;;;7361990;19;20018;-69
2023/05/28 06:37:51;;;;;;;8.88;4.32;;;18.50;1.00;;;;;;7363684;19;20034;-69
2023/05/28 06:40:21;;;;;;;9.75;4.53;;;18.80;1.00;;;;;;7361056;19;20024;-69
2023/05/28 06:42:53;;;;;;;7.15;4.85;;;19.10;1.00;;;;;;7385314;19;20062;-68
2023/05/28 06:45:23;;;;;;;8.38;4.20;;;18.60;1.00;;;;;;7362639;19;20861;-69
2023/05/28 06:47:53;;;;;;;7.30;4.45;;;17.80;1.00;;;;;;7362931;19;20070;-68
2023/05/28 06:50:23;;;;;;;12.18;5.00;;;17.60;1.00;;;;;;7360547;19;20070;-68
2023/05/28 06:52:53;;;;;;;9.45;4.70;;;17.80;1.00;;;;;;7364134;19;20074;-69
2023/05/28 06:55:23;;;;;;;7.22;4.40;;;17.70;1.00;;;;;;7362596;19;20011;-69
2023/05/28 06:57:56;;;;;;;8.85;5.05;;;17.90;1.00;;;;;;7385836;19;20031;-68
2023/05/28 07:00:26;;;;;;;9.50;4.60;;;17.90;1.00;;;;;;7359435;19;20391;-68
2023/05/28 07:02:55;;;;;;;9.48;4.95;;;17.70;1.00;;;;;;7363011;19;20032;-68
2023/05/28 07:05:25;;;;;;;9.75;4.68;;;17.70;1.00;;;;;;7362216;19;20002;-69
2023/05/28 07:07:55;;;;;;;7.65;4.60;;;18.10;1.00;;;;;;7363707;19;20423;-68
2023/05/28 07:10:26;;;;;;;7.47;4.82;;;17.90;1.00;;;;;;7361372;19;20511;-68
2023/05/28 07:12:58;;;;;;;8.20;4.20;;;17.70;1.00;;;;;;7391375;19;20094;-67
2023/05/28 07:15:28;;;;;;;11.02;4.63;;;18.20;1.00;;;;;;7368120;19;20057;-68
2023/05/28 07:18:00;;;;;;;9.65;4.88;;;18.10;1.00;;;;;;7369864;19;20522;-68
2023/05/28 07:20:30;;;;;;;11.32;4.90;;;17.70;1.00;;;;;;7367795;19;20010;-68
2023/05/28 07:23:00;;;;;;;9.68;4.30;;;18.40;1.00;;;;;;7368158;19;20011;-68
2023/05/28 07:25:30;;;;;;;6.85;4.50;;;18.80;1.00;;;;;;7367732;19;20051;-68
2023/05/28 07:28:03;;;;;;;8.25;4.60;;;19.00;1.00;;;;;;7388829;19;20017;-69
2023/05/28 07:30:33;;;;;;;10.13;4.78;;;19.00;1.00;;;;;;7364145;19;20532;-69
2023/05/28 07:33:03;;;;;;;10.25;5.28;;;19.30;1.00;;;;;;7369304;19;20109;-69
2023/05/28 07:35:33;;;;;;;10.40;4.88;;;19.30;1.00;;;;;;7367155;19;20010;-69
2023/05/28 07:38:03;;;;;;;11.18;5.03;;;19.20;1.00;;;;;;7368018;19;20014;-69
2023/05/28 07:40:33;;;;;;;8.02;3.72;;;19.10;1.00;;;;;;7365644;19;20022;-69
2023/05/28 07:43:06;;;;;;;11.90;4.88;;;19.50;1.00;;;;;;7390811;19;20035;-69
2023/05/28 07:45:36;;;;;;;9.27;4.90;;;19.70;1.00;;;;;;7367955;19;20038;-69
2023/05/28 07:48:06;;;;;;;8.27;4.13;;;19.60;1.00;;;;;;7367530;19;20026;-69
2023/05/28 07:50:36;;;;;;;7.10;4.15;;;19.70;1.00;;;;;;7365873;19;20101;-69
2023/05/28 07:53:06;;;;;;;9.10;4.80;;;20.00;1.00;;;;;;7368387;19;20481;-69
2023/05/28 07:55:36;;;;;;;8.40;4.68;;;19.20;1.00;;;;;;7367524;19;20099;-69
2023/05/28 07:58:09;;;;;;;9.63;4.43;;;19.30;1.00;;;;;;7390763;19;20035;-69
2023/05/28 08:00:39;;;;;;;8.88;4.60;;;19.40;1.00;;;;;;7364213;19;20014;-69
2023/05/28 08:03:11;;;;;;;7.05;4.15;;;19.70;1.00;;;;;;7368750;19;20364;-69
2023/05/28 08:05:41;;;;;;;8.65;4.40;;;19.70;1.00;;;;;;7368090;19;20007;-68
2023/05/28 08:08:11;;;;;;;7.25;4.43;;;19.80;1.00;;;;;;7368533;19;20085;-68
2023/05/28 08:10:41;;;;;;;11.70;4.90;;;19.10;1.00;;;;;;7365946;19;20007;-70
2023/05/28 08:13:14;;;;;;;12.55;4.93;;;19.70;1.00;;;;;;7389516;19;20025;-69
2023/05/28 08:15:44;;;;;;;8.35;4.28;;;19.90;1.00;;;;;;7367515;19;20007;-69
2023/05/28 08:18:14;;;;;;;9.68;4.70;;;19.20;1.00;;;;;;7366619;19;20679;-69
2023/05/28 08:20:44;;;;;;;9.55;4.15;;;19.50;1.00;;;;;;7364970;19;20025;-69
2023/05/28 08:23:14;;;;;;;9.23;4.25;;;19.80;1.00;;;;;;7367343;19;20482;-69
2023/05/28 08:25:44;;;;;;;13.75;4.28;;;20.30;1.00;;;;;;7366323;19;20074;-69
2023/05/28 08:28:20;;;;;;;7.05;4.32;;;20.60;1.00;;;;;;7389330;19;20022;-69
2023/05/28 08:30:50;;;;;;;9.95;4.35;;;20.40;1.00;;;;;;7364291;19;20086;-69
2023/05/28 08:33:20;;;;;;;9.90;4.60;;;20.00;1.00;;;;;;7366365;19;20018;-69
2023/05/28 08:35:49;;;;;;;9.43;4.63;;;20.60;1.00;;;;;;7367970;19;20121;-69
2023/05/28 08:38:20;;;;;;;8.75;4.53;;;20.60;1.00;;;;;;7366980;19;20537;-69
2023/05/28 08:40:55;;;;;;;9.73;4.50;;;20.70;1.00;;;;;;7365013;19;20094;-69
2023/05/28 08:43:28;;;;;;;9.65;4.50;;;21.00;1.00;;;;;;7364925;19;20022;-69
2023/05/28 08:45:58;;;;;;;12.00;4.28;;;20.80;1.00;;;;;;7388806;19;20010;-65
2023/05/28 08:48:29;;;;;;;7.65;4.30;;;20.90;1.00;;;;;;7366062;19;20011;-65
2023/05/28 08:51:00;;;;;;;8.85;4.50;;;21.30;1.00;;;;;;7363743;19;20025;-64
2023/05/28 08:53:34;;;;;;;9.40;3.95;;;21.50;1.00;;;;;;7366033;19;20516;-64
2023/05/28 08:56:05;;;;;;;9.30;4.07;;;21.50;1.00;;;;;;7366138;19;20058;-64
2023/05/28 08:58:39;;;;;;;9.60;4.47;;;21.70;1.00;;;;;;7364663;19;20026;-64
2023/05/28 09:01:11;;;;;;;7.88;4.05;;;21.80;1.00;;;;;;7383897;19;20018;-65
2023/05/28 09:03:42;;;;;;;12.25;4.20;;;21.30;1.00;;;;;;7358375;19;20606;-64
2023/05/28 09:06:13;;;;;;;16.40;4.63;;;21.20;1.00;;;;;;7365561;19;20022;-65
2023/05/28 09:08:44;;;;;;;8.73;4.03;;;21.40;1.00;;;;;;7366224;19;20057;-63
2023/05/28 09:11:15;;;;;;;7.45;3.88;;;21.50;1.00;;;;;;7363750;19;20021;-65
2023/05/28 09:13:49;;;;;;;10.02;4.30;;;21.50;1.00;;;;;;7364670;19;20025;-63
2023/05/28 09:16:23;;;;;;;;;;;21.10;1.00;;;;;;7367000;19;20031;-64
2023/05/28 09:18:54;;;;;;;8.70;4.03;;;21.40;1.00;;;;;;7387442;19;20222;-65
2023/05/28 09:21:24;;;;;;;9.40;4.30;;;21.70;1.00;;;;;;7364408;19;20011;-65
2023/05/28 09:23:54;;;;;;;8.65;4.05;;;21.60;1.00;;;;;;7363864;19;20042;-64
2023/05/28 09:26:27;;;;;;;9.57;3.70;;;21.60;1.00;;;;;;7364387;19;20401;-64
2023/05/28 09:29:00;;;;;;;6.88;3.70;;;21.50;1.00;;;;;;7364982;19;20015;-64
2023/05/28 09:31:33;;;;;;;8.95;4.40;;;21.50;1.00;;;;;;7364362;19;20022;-64
2023/05/28 09:34:07;;;;;;;9.20;3.60;;;21.90;1.00;;;;;;7384283;19;20029;-63
2023/05/28 09:36:38;;;;;;;13.27;4.25;;;21.70;1.00;;;;;;7364866;19;20026;-64
2023/05/28 09:39:09;;;;;;;8.48;4.13;;;21.90;1.00;;;;;;7364045;19;20034;-65
2023/05/28 09:41:43;;;;;;;7.03;3.47;;;22.50;1.00;;;;;;7363682;19;20026;-64
2023/05/28 09:44:22;;;;;;;8.65;4.40;;;23.00;1.00;;;;;;7363643;19;20014;-65
2023/05/28 09:46:52;;;;;;;8.95;4.15;;;22.70;1.00;;;;;;7365079;19;20006;-64
2023/05/28 09:49:22;;;;;;;7.22;3.80;;;23.00;1.00;;;;;;7363043;19;20018;-64
2023/05/28 09:51:55;;;;;;;10.88;4.35;;;23.00;1.00;;;;;;7384051;19;20462;-64
2023/05/28 09:54:28;;;;;;;8.38;3.97;;;22.50;1.00;;;;;;7361510;19;20052;-65
2023/05/28 09:57:02;;;;;;;9.57;4.18;;;22.50;1.00;;;;;;7362113;19;20019;-64
2023/05/28 09:59:36;;;;;;;7.57;3.90;;;22.40;1.00;;;;;;7362569;19;20018;-64
2023/05/28 10:02:11;;;;;;;;;;;22.70;1.00;;;;;;7363650;19;20018;-65
2023/05/28 10:04:44;;;;;;;8.75;3.88;;;22.40;1.00;;;;;;7362398;19;19960;-64
2023/05/28 10:07:15;;;;;;;10.40;4.13;;;22.70;1.00;;;;;;7385717;19;20478;-65
2023/05/28 10:09:45;;;;;;;6.50;4.00;;;22.60;1.00;;;;;;7362287;19;20471;-64
2023/05/28 10:12:21;;;;;;;7.55;3.78;;;22.80;1.00;;;;;;7362135;19;20019;-65
2023/05/28 10:14:54;;;;;;;9.18;4.03;;;22.60;1.00;;;;;;7362391;19;20010;-65
2023/05/28 10:17:25;;;;;;;5.65;3.53;;;22.90;1.00;;;;;;7363284;19;20015;-64
2023/05/28 10:19:55;;;;;;;8.65;3.63;;;22.80;1.00;;;;;;7362034;19;20022;-65
2023/05/28 10:22:25;;;;;;;9.85;4.13;;;23.10;1.00;;;;;;7362799;19;20078;-64
2023/05/28 10:24:55;;;;;;;11.57;4.60;;;23.20;1.00;;;;;;7383199;19;20015;-65
2023/05/28 10:27:31;;;;;;;8.77;4.05;;;23.30;1.00;;;;;;7362471;19;20052;-66
2023/05/28 10:30:05;;;;;;;13.90;4.70;;;23.80;1.00;;;;;;7355203;19;20014;-65
2023/05/28 10:32:41;;;;;;;8.35;3.38;;;23.30;1.00;;;;;;7360971;19;20042;-65
2023/05/28 10:35:13;;;;;;;6.70;3.95;;;23.80;1.00;;;;;;7361423;19;20781;-65
2023/05/28 10:37:43;;;;;;;8.38;3.80;;;23.80;1.00;;;;;;7361651;19;20010;-64
2023/05/28 10:40:24;;;;;;;7.13;3.58;;;23.70;1.00;;;;;;7381946;19;20038;-64
2023/05/28 10:42:54;;;;;;;7.88;3.80;;;23.40;1.00;;;;;;7361940;19;20030;-65
2023/05/28 10:45:37;;;;;;;7.50;3.78;;;24.10;1.00;;;;;;7360516;19;20022;-63
2023/05/28 10:48:07;;;;;;;7.30;3.75;;;23.60;1.00;;;;;;7362107;19;20027;-65
2023/05/28 10:51:00;;;;;;;11.48;4.30;;;23.10;1.00;;;;;;7361343;19;20018;-65
2023/05/28 10:53:30;;;;;;;10.82;3.95;;;23.10;1.00;;;;;;7360424;19;20596;-64
2023/05/28 10:56:00;;;;;;;8.38;3.88;;;23.60;1.00;;;;;;7360789;19;20065;-64
2023/05/28 10:58:35;;;;;;;7.00;3.65;;;23.50;1.00;;;;;;7359497;19;20463;-65
2023/05/28 11:01:22;;;;;;;9.20;3.42;;;23.60;1.00;;;;;;7383411;19;20015;-65
2023/05/28 11:03:56;;;;;;;6.38;3.60;;;23.70;1.00;;;;;;7358637;19;20019;-64
2023/05/28 11:06:27;;;;;;;;;;;23.80;1.00;;;;;;7359259;19;20019;-69
2023/05/28 11:09:00;;;;;;;8.93;3.72;;;23.80;1.00;;;;;;7362454;19;19911;-69
2023/05/28 11:11:30;;;;;;;6.85;3.33;;;23.60;1.00;;;;;;7359838;19;20011;-69
2023/05/28 11:14:03;;;;;;;8.25;3.90;;;24.10;1.00;;;;;;7361658;19;20789;-70
2023/05/28 11:16:35;;;;;;;10.30;3.97;;;24.20;1.00;;;;;;7357541;19;20029;-68
2023/05/28 11:19:08;;;;;;;6.78;3.42;;;24.30;1.00;;;;;;7379965;19;20486;-68
2023/05/28 11:21:52;;;;;;;11.07;4.68;;;24.50;1.00;;;;;;7360876;19;20014;-68
2023/05/28 11:24:22;;;;;;;8.27;3.53;;;24.20;1.00;;;;;;7359091;19;20018;-68
2023/05/28 11:26:55;;;;;;;6.05;3.47;;;24.10;1.00;;;;;;7359075;19;20014;-69
2023/05/28 11:29:25;;;;;;;5.38;3.75;;;24.20;1.00;;;;;;7361043;19;20028;-69
2023/05/28 11:31:58;;;;;;;8.10;3.75;;;24.10;1.00;;;;;;7360617;19;20071;-69
2023/05/28 11:34:28;;;;;;;9.90;4.03;;;24.60;1.00;;;;;;7357304;19;20038;-69
2023/05/28 11:36:58;;;;;;;7.53;4.07;;;24.80;1.00;;;;;;7380886;19;20191;-68
2023/05/28 11:39:28;;;;;;;6.85;3.95;;;24.50;1.00;;;;;;7357407;19;20090;-68
2023/05/28 11:41:58;;;;;;;6.63;3.47;;;24.70;1.00;;;;;;7358257;19;20082;-68
2023/05/28 11:44:28;;;;;;;7.55;3.70;;;25.00;1.00;;;;;;7357202;19;20482;-68
2023/05/28 11:47:01;;;;;;;5.85;3.53;;;24.60;1.00;;;;;;7358608;19;20016;-69
2023/05/28 11:49:38;;;;;;;13.48;3.78;;;24.40;1.00;;;;;;7361526;19;20062;-68
2023/05/28 11:52:12;;;;;;;7.32;4.05;;;25.00;1.00;;;;;;7381848;19;20350;-69
2023/05/28 11:54:43;;;;;;;;;;;25.40;1.00;;;;;;7355773;19;20014;-69
2023/05/28 11:57:13;;;;;;;7.75;3.53;;;24.80;1.00;;;;;;7367443;19;20024;-68
2023/05/28 11:59:43;;;;;;;7.68;3.60;;;24.40;1.00;;;;;;7365351;19;20436;-70
2023/05/28 12:02:18;;;;;;;6.50;3.60;;;24.70;1.00;;;;;;7366572;19;20486;-70
2023/05/28 12:04:57;;;;;;;7.93;3.58;;;24.70;1.00;;;;;;7366340;19;20022;-68
2023/05/28 12:07:31;;;;;;;6.90;3.70;;;24.10;1.00;;;;;;7369211;19;20010;-69
2023/05/28 12:10:06;;;;;;;9.02;3.85;;;24.00;1.00;;;;;;7388350;19;20037;-70
2023/05/28 12:12:36;;;;;;;5.57;3.58;;;24.40;1.00;;;;;;7368922;19;20011;-68
2023/05/28 12:15:07;;;;;;;9.25;3.83;;;24.30;1.00;;;;;;7363689;19;20620;-69
2023/05/28 12:17:41;;;;;;;7.00;3.70;;;24.70;1.00;;;;;;7365498;19;20011;-69
2023/05/28 12:20:31;;;;;;;9.52;3.75;;;25.10;1.00;;;;;;7363681;19;20482;-69
2023/05/28 12:23:06;;;;;;;7.15;3.33;;;24.80;1.00;;;;;;7365052;19;20015;-69
2023/05/28 12:25:50;;;;;;;5.05;3.47;;;25.30;1.00;;;;;;7364485;19;20021;-69
2023/05/28 12:28:22;;;;;;;9.23;3.77;;;24.50;1.00;;;;;;7364293;19;20014;-69
2023/05/28 12:30:54;;;;;;;7.57;4.20;;;24.80;1.00;;;;;;7387510;19;20014;-69
2023/05/28 12:33:27;;;;;;;6.40;3.43;;;24.60;1.00;;;;;;7361705;19;20037;-68
2023/05/28 12:35:59;;;;;;;7.38;3.95;;;24.50;1.00;;;;;;7364740;19;20015;-69
2023/05/28 12:38:30;;;;;;;8.00;3.75;;;24.50;1.00;;;;;;7363898;19;20382;-69
2023/05/28 12:41:00;;;;;;;7.30;3.40;;;24.80;1.00;;;;;;7360399;19;20753;-69
2023/05/28 12:43:30;;;;;;;7.97;3.88;;;24.30;1.00;;;;;;7363829;19;20025;-69
2023/05/28 12:46:00;;;;;;;10.82;4.32;;;24.60;1.00;;;;;;7389519;19;20478;-69
2023/05/28 12:48:33;;;;;;;6.13;3.10;;;24.90;1.00;;;;;;7366067;19;20014;-69
2023/05/28 12:51:03;;;;;;;7.00;3.47;;;24.90;1.00;;;;;;7359123;19;20088;-69
2023/05/28 12:53:33;;;;;;;6.85;4.05;;;25.00;1.00;;;;;;7362634;19;20023;-68
2023/05/28 12:56:02;;;;;;;7.30;3.42;;;25.00;1.00;;;;;;7362296;19;20817;-68
2023/05/28 12:58:32;;;;;;;5.97;3.60;;;24.90;1.00;;;;;;7360835;19;20022;-68
2023/05/28 13:01:03;;;;;;;6.10;3.42;;;25.00;1.00;;;;;;7385717;19;20042;-69
2023/05/28 13:03:35;;;;;;;8.00;3.70;;;24.90;1.00;;;;;;7363912;19;20463;-68
2023/05/28 13:06:05;;;;;;;8.10;3.58;;;25.10;1.00;;;;;;7363310;19;20018;-68
2023/05/28 13:08:35;;;;;;;7.50;3.80;;;24.80;1.00;;;;;;7363123;19;20014;-69
2023/05/28 13:11:05;;;;;;;9.45;3.80;;;25.00;1.00;;;;;;7359746;19;20418;-68
2023/05/28 13:13:35;;;;;;;7.05;3.60;;;24.60;1.00;;;;;;7359711;19;20014;-68